Calamocha, Spain

7:31 PM CEST on October 01, 2016 (GMT +0200)
Calamocha | | Change Station

Elev 2917 ft 40.93 °N, 1.29 °W | Updated 31 minutes ago

Scattered Clouds
Scattered Clouds
72 °F
Feels Like 72 °F
N
9
Wind Variable Wind from ESE

Today
High -- | Low -- °F
--% Chance of Precip.
Yesterday
High -- | Low -- °F
Precip. -- in
Pressure 29.92 in
Visibility 5.6 miles
Clouds Few 2500 ft
Scattered Clouds 5000 ft
Dew Point 64 °F
Humidity 78%
Rainfall 0.00 in
Snow Depth Not available.
8:02 AM 7:46 PM
New Moon, 1% visible
METAR LECH 011700Z 11008KT 9000 FEW025 SCT050 22/18 Q1013
Pressure 29.92 in
Visibility 5.6 miles
Clouds Few 2500 ft
Scattered Clouds 5000 ft
Dew Point 64 °F
Humidity 78%
Rainfall 0.00 in
Snow Depth Not available.
8:02 AM 7:46 PM
New Moon, 1% visible
METAR LECH 011700Z 11008KT 9000 FEW025 SCT050 22/18 Q1013

10-Day Weather Forecast

×

Almanac

Astronomy

Oct. 01, 2016 Rise Set
Actual Time
Civil Twilight
Nautical Twilight
Astronomical Twilight
Moon
Length of Visible Light
Length of Day
Tomorrow will be .
, % of the Moon is Illuminated

Today's Extremes

Country Highs Country Lows

Community

WunderPhotos

Upload Photos

1,942,963 photos uploaded!

WunderBlog® & News

Nearby

Air Quality

  Air Quality AQ Index Pollutant
Not available.

Snow Depth

Station Depth Elevation

Earthquake Activity

City Distance Mag. Time & Date
Minimum magnitude displayed is 2.5.

Coastal Water Temperatures

Place Temperature

Stations

Nearby Weather Stations

Station Location Temp. Windchill Dew Point Humidity Wind Precip. Elev Updated Type